Time;durP1;ratioP1;P1;durP2;ratioP2;P2;SDS_P1;SDS_P2;PMS_P1;PMS_P2;Temp;Humidity;BMP_temperature;BMP_pressure;BME280_temperature;BME280_humidity;BME280_pressure;Samples;Min_cycle;Max_cycle;Signal;HPM_P1;HPM_P2
2023/02/15 00:00:25;;;;;;;98.45;27.55;;;;;;;;;;5053855;28;20235;-68
2023/02/15 00:02:53;;;;;;;80.43;26.73;;;;;;;;;;5051156;28;20227;-68
2023/02/15 00:05:23;;;;;;;70.38;26.02;;;;;;;;;;5052264;28;20232;-67
2023/02/15 00:07:51;;;;;;;71.35;28.05;;;;;;;;;;5053173;28;20215;-69
2023/02/15 00:10:19;;;;;;;74.15;26.73;;;;;;;;;;5041780;28;20205;-68
2023/02/15 00:12:47;;;;;;;74.80;26.67;;;;;;;;;;5049383;28;20197;-69
2023/02/15 00:15:15;;;;;;;73.85;26.30;;;;;;;;;;5054601;28;20727;-69
2023/02/15 00:17:43;;;;;;;66.35;26.98;;;;;;;;;;5053771;28;20203;-68
2023/02/15 00:20:12;;;;;;;77.55;25.70;;;;;;;;;;5047690;28;20551;-69
2023/02/15 00:22:41;;;;;;;109.47;26.80;;;;;;;;;;5053014;28;20228;-70
2023/02/15 00:25:10;;;;;;;66.63;25.70;;;;;;;;;;5050228;28;20203;-70
2023/02/15 00:27:38;;;;;;;85.72;27.13;;;;;;;;;;5051043;28;20200;-69
2023/02/15 00:30:06;;;;;;;83.82;26.50;;;;;;;;;;5046848;28;20201;-69
2023/02/15 00:32:35;;;;;;;103.00;27.90;;;;;;;;;;5046282;28;20201;-68
2023/02/15 00:35:03;;;;;;;66.03;26.33;;;;;;;;;;5049202;28;20215;-68
2023/02/15 00:37:31;;;;;;;81.85;29.05;;;;;;;;;;5050635;28;20580;-69
2023/02/15 00:40:01;;;;;;;83.57;26.88;;;;;;;;;;5045102;28;20640;-69
2023/02/15 00:42:31;;;;;;;58.10;27.63;;;;;;;;;;5048744;28;20204;-68
2023/02/15 00:44:59;;;;;;;70.90;26.08;;;;;;;;;;5045039;28;20215;-69
2023/02/15 00:47:30;;;;;;;107.28;26.63;;;;;;;;;;5040858;28;20207;-68
2023/02/15 00:49:58;;;;;;;86.35;28.38;;;;;;;;;;5052893;28;20204;-68
2023/02/15 00:52:26;;;;;;;64.28;22.88;;;;;;;;;;5054082;28;20707;-69
2023/02/15 00:54:54;;;;;;;102.57;30.30;;;;;;;;;;5043063;28;20208;-69
2023/02/15 00:57:24;;;;;;;106.38;28.05;;;;;;;;;;5040020;28;20210;-67
2023/02/15 00:59:52;;;;;;;83.15;27.80;;;;;;;;;;5049608;28;20276;-67
2023/02/15 01:02:21;;;;;;;81.45;28.55;;;;;;;;;;5044570;28;20235;-68
2023/02/15 01:04:49;;;;;;;73.97;26.85;;;;;;;;;;5041741;28;20727;-67
2023/02/15 01:07:18;;;;;;;71.78;26.65;;;;;;;;;;5056122;28;20281;-67
2023/02/15 01:09:46;;;;;;;98.70;31.08;;;;;;;;;;5049697;28;20266;-67
2023/02/15 01:12:15;;;;;;;83.00;26.27;;;;;;;;;;5053776;28;20284;-67
2023/02/15 01:14:44;;;;;;;65.43;26.10;;;;;;;;;;5053669;28;20252;-68
2023/02/15 01:17:12;;;;;;;86.18;29.48;;;;;;;;;;5045920;28;20363;-67
2023/02/15 01:19:40;;;;;;;79.00;26.35;;;;;;;;;;5040376;28;20280;-67
2023/02/15 01:22:09;;;;;;;61.55;25.75;;;;;;;;;;5055094;28;20219;-68
2023/02/15 01:24:37;;;;;;;64.32;26.38;;;;;;;;;;5058747;28;20219;-67
2023/02/15 01:27:05;;;;;;;75.57;27.88;;;;;;;;;;5060692;28;20252;-67
2023/02/15 01:29:33;;;;;;;78.03;26.23;;;;;;;;;;5060090;28;20253;-67
2023/02/15 01:32:03;;;;;;;98.88;29.80;;;;;;;;;;5042932;28;20753;-67
2023/02/15 01:34:31;;;;;;;77.93;28.17;;;;;;;;;;5043893;28;20284;-67
2023/02/15 01:36:59;;;;;;;87.93;25.70;;;;;;;;;;5059052;28;20307;-68
2023/02/15 01:39:28;;;;;;;75.35;29.10;;;;;;;;;;5060784;28;20296;-67
2023/02/15 01:41:56;;;;;;;95.88;27.73;;;;;;;;;;5053095;28;20331;-67
2023/02/15 01:44:48;;;;;;;75.82;28.00;;;;;;;;;;5041145;28;20720;-67
2023/02/15 01:47:19;;;;;;;78.85;25.55;;;;;;;;;;5046137;28;20264;-67
2023/02/15 01:49:48;;;;;;;72.75;27.30;;;;;;;;;;5061880;28;20618;-67
2023/02/15 01:52:19;;;;;;;82.97;29.05;;;;;;;;;;5062147;28;20752;-68
2023/02/15 01:54:48;;;;;;;77.47;26.40;;;;;;;;;;5061085;28;20250;-68
2023/02/15 01:57:18;;;;;;;90.28;27.75;;;;;;;;;;5060995;28;20308;-67
2023/02/15 01:59:49;;;;;;;56.20;25.20;;;;;;;;;;5059590;28;20699;-68
2023/02/15 02:02:20;;;;;;;67.80;25.67;;;;;;;;;;5058487;28;20728;-67
2023/02/15 02:04:49;;;;;;;71.43;27.67;;;;;;;;;;5061006;28;20276;-67
2023/02/15 02:07:21;;;;;;;69.97;28.20;;;;;;;;;;5060295;28;20249;-68
2023/02/15 02:09:50;;;;;;;79.78;27.70;;;;;;;;;;5060455;28;20283;-67
2023/02/15 02:12:18;;;;;;;75.82;25.50;;;;;;;;;;5060110;28;20330;-68
2023/02/15 02:14:47;;;;;;;85.95;26.75;;;;;;;;;;5052812;28;20276;-67
2023/02/15 02:17:18;;;;;;;72.13;27.05;;;;;;;;;;5052992;28;20287;-68
2023/02/15 02:19:55;;;;;;;72.80;26.45;;;;;;;;;;5061722;28;20240;-68
2023/02/15 02:22:45;;;;;;;74.15;26.25;;;;;;;;;;5050484;28;20271;-67
2023/02/15 02:25:19;;;;;;;63.10;27.02;;;;;;;;;;5046692;28;20283;-67
2023/02/15 02:27:49;;;;;;;65.53;26.45;;;;;;;;;;5059697;28;20272;-65
2023/02/15 02:30:28;;;;;;;67.22;25.52;;;;;;;;;;5056596;28;20686;-66
2023/02/15 02:33:09;;;;;;;88.30;28.33;;;;;;;;;;5060323;28;20268;-66
2023/02/15 02:35:41;;;;;;;83.43;29.27;;;;;;;;;;5058959;28;20258;-67
2023/02/15 02:38:11;;;;;;;64.03;26.15;;;;;;;;;;5042231;28;20272;-66
2023/02/15 02:40:45;;;;;;;77.57;28.70;;;;;;;;;;5044732;28;20672;-66
2023/02/15 02:43:17;;;;;;;71.28;26.00;;;;;;;;;;5042044;28;20296;-67
2023/02/15 02:45:49;;;;;;;65.53;24.75;;;;;;;;;;5044064;28;20283;-66
2023/02/15 02:48:21;;;;;;;81.93;28.05;;;;;;;;;;5061090;28;20208;-67
2023/02/15 02:50:50;;;;;;;70.53;26.23;;;;;;;;;;5061187;28;20272;-67
2023/02/15 02:53:19;;;;;;;88.88;27.42;;;;;;;;;;5062004;28;20286;-67
2023/02/15 02:55:48;;;;;;;66.80;28.20;;;;;;;;;;5047145;28;20285;-67
2023/02/15 02:58:18;;;;;;;76.13;27.40;;;;;;;;;;5060932;28;20280;-67
2023/02/15 03:00:49;;;;;;;56.65;24.80;;;;;;;;;;5048090;28;20280;-66
2023/02/15 03:03:23;;;;;;;77.38;26.88;;;;;;;;;;5059678;28;20335;-66
2023/02/15 03:05:53;;;;;;;67.03;24.42;;;;;;;;;;5052949;28;20245;-67
2023/02/15 03:08:23;;;;;;;74.65;25.25;;;;;;;;;;5043671;28;20638;-66
2023/02/15 03:10:54;;;;;;;76.13;25.52;;;;;;;;;;5038311;28;20272;-67
2023/02/15 03:13:23;;;;;;;66.03;26.30;;;;;;;;;;5055699;28;20275;-66
2023/02/15 03:18:42;;;;;;;57.88;24.92;;;;;;;;;;5043504;28;20252;-66
2023/02/15 03:21:21;;;;;;;63.65;25.83;;;;;;;;;;5050595;28;20277;-66
2023/02/15 03:23:54;;;;;;;66.07;25.10;;;;;;;;;;5045984;28;20312;-66
2023/02/15 03:26:23;;;;;;;58.30;24.23;;;;;;;;;;5048648;28;20275;-66
2023/02/15 03:28:54;;;;;;;70.50;28.30;;;;;;;;;;5048182;28;20276;-67
2023/02/15 03:31:23;;;;;;;59.75;25.10;;;;;;;;;;5055188;28;20306;-67
2023/02/15 03:33:55;;;;;;;67.15;27.15;;;;;;;;;;5051653;28;20253;-66
2023/02/15 03:36:26;;;;;;;58.30;28.00;;;;;;;;;;5057645;28;20327;-66
2023/02/15 03:38:59;;;;;;;76.78;26.05;;;;;;;;;;5061860;28;20264;-66
2023/02/15 03:41:28;;;;;;;71.85;26.30;;;;;;;;;;5047222;28;20284;-66
2023/02/15 03:43:59;;;;;;;61.90;23.58;;;;;;;;;;5048819;28;20299;-66
2023/02/15 03:46:30;;;;;;;67.68;26.70;;;;;;;;;;5045936;28;20300;-66
2023/02/15 03:49:02;;;;;;;58.08;22.75;;;;;;;;;;5045551;28;20272;-67
2023/02/15 03:51:34;;;;;;;59.17;23.00;;;;;;;;;;5062099;28;20245;-67
2023/02/15 03:54:04;;;;;;;55.30;25.85;;;;;;;;;;5062164;28;20256;-66
2023/02/15 03:56:32;;;;;;;53.08;23.58;;;;;;;;;;5060915;28;20212;-66
2023/02/15 04:01:58;;;;;;;59.50;23.42;;;;;;;;;;5060493;28;20663;-66
2023/02/15 04:04:35;;;;;;;55.53;22.77;;;;;;;;;;5060458;28;20291;-66
2023/02/15 04:07:04;;;;;;;71.90;24.40;;;;;;;;;;5059941;28;20275;-66
2023/02/15 04:12:17;;;;;;;57.30;23.40;;;;;;;;;;5040063;28;20274;-66
2023/02/15 04:17:32;;;;;;;54.70;25.13;;;;;;;;;;5058063;28;20276;-66
2023/02/15 04:25:33;;;;;;;63.30;22.50;;;;;;;;;;5038193;28;20308;-67
2023/02/15 04:28:01;;;;;;;55.50;21.80;;;;;;;;;;5038819;28;20253;-67
2023/02/15 04:30:29;;;;;;;53.90;22.63;;;;;;;;;;5044748;28;20644;-67
2023/02/15 04:32:58;;;;;;;47.90;21.60;;;;;;;;;;5057069;28;20260;-67
2023/02/15 04:35:27;;;;;;;45.80;20.45;;;;;;;;;;5053646;28;20283;-67
2023/02/15 04:37:56;;;;;;;46.80;22.08;;;;;;;;;;5038939;28;20288;-67
2023/02/15 04:40:24;;;;;;;50.03;22.92;;;;;;;;;;5047543;28;20287;-67
2023/02/15 04:42:52;;;;;;;53.60;21.92;;;;;;;;;;5054717;28;20608;-67
2023/02/15 04:45:21;;;;;;;51.38;21.98;;;;;;;;;;5042428;28;20257;-67
2023/02/15 04:47:49;;;;;;;61.42;23.92;;;;;;;;;;5045464;28;20356;-67
2023/02/15 04:50:18;;;;;;;49.70;21.27;;;;;;;;;;5041878;28;20350;-67
2023/02/15 04:52:47;;;;;;;47.28;22.75;;;;;;;;;;5045578;28;20260;-67
2023/02/15 04:55:15;;;;;;;56.85;22.65;;;;;;;;;;5064530;28;20252;-67
2023/02/15 04:57:43;;;;;;;57.25;22.90;;;;;;;;;;5060974;28;20280;-67
2023/02/15 05:00:12;;;;;;;54.67;23.90;;;;;;;;;;5050072;28;20251;-67
2023/02/15 05:02:40;;;;;;;52.55;24.30;;;;;;;;;;5052052;28;20260;-67
2023/02/15 05:05:12;;;;;;;69.53;28.30;;;;;;;;;;5061998;28;20288;-67
2023/02/15 05:07:40;;;;;;;51.65;22.42;;;;;;;;;;5050161;28;20264;-67
2023/02/15 05:10:10;;;;;;;58.42;22.83;;;;;;;;;;5044117;28;20261;-67
2023/02/15 05:12:38;;;;;;;68.47;23.98;;;;;;;;;;5054705;28;20260;-67
2023/02/15 05:15:07;;;;;;;66.03;23.98;;;;;;;;;;5053847;28;20276;-67
2023/02/15 05:17:35;;;;;;;52.47;22.63;;;;;;;;;;5060957;28;20287;-67
2023/02/15 05:20:03;;;;;;;82.65;26.63;;;;;;;;;;5063256;28;20256;-67
2023/02/15 05:22:32;;;;;;;61.50;23.17;;;;;;;;;;5064995;28;20299;-67
2023/02/15 05:30:33;;;;;;;67.80;21.30;;;;;;;;;;5050036;28;20301;-67
2023/02/15 05:33:01;;;;;;;49.55;24.52;;;;;;;;;;5044687;28;20265;-67
2023/02/15 05:35:30;;;;;;;42.90;22.63;;;;;;;;;;5060999;28;20276;-67
2023/02/15 05:37:58;;;;;;;47.15;22.48;;;;;;;;;;5044746;28;20775;-67
2023/02/15 05:40:26;;;;;;;49.53;22.58;;;;;;;;;;5044393;28;20288;-67
2023/02/15 05:42:55;;;;;;;54.42;22.40;;;;;;;;;;5044118;28;20694;-67
2023/02/15 05:45:24;;;;;;;79.57;23.85;;;;;;;;;;5048390;28;20213;-67
2023/02/15 05:47:52;;;;;;;49.60;20.13;;;;;;;;;;5043140;28;20296;-67
2023/02/15 05:50:20;;;;;;;48.88;21.92;;;;;;;;;;5049192;28;20711;-67
2023/02/15 05:52:49;;;;;;;52.90;22.55;;;;;;;;;;5060932;28;20248;-67
2023/02/15 05:55:17;;;;;;;55.75;23.83;;;;;;;;;;5058136;28;20298;-67
2023/02/15 05:57:45;;;;;;;50.78;22.95;;;;;;;;;;5042808;28;20672;-67
2023/02/15 06:00:15;;;;;;;50.38;23.23;;;;;;;;;;5044408;28;20258;-67
2023/02/15 06:02:44;;;;;;;55.53;23.70;;;;;;;;;;5061169;28;20332;-67
2023/02/15 06:05:12;;;;;;;55.38;24.27;;;;;;;;;;5050342;28;20304;-67
2023/02/15 06:07:40;;;;;;;57.88;24.75;;;;;;;;;;5051358;28;20260;-67
2023/02/15 06:10:08;;;;;;;54.60;26.33;;;;;;;;;;5061284;28;20275;-67
2023/02/15 06:12:36;;;;;;;55.00;23.27;;;;;;;;;;5047781;28;20287;-67
2023/02/15 06:15:05;;;;;;;52.75;24.40;;;;;;;;;;5059237;28;20748;-67
2023/02/15 06:17:34;;;;;;;47.40;22.67;;;;;;;;;;5045595;28;20257;-67
2023/02/15 06:20:02;;;;;;;55.00;24.75;;;;;;;;;;5045492;28;20277;-68
2023/02/15 06:22:31;;;;;;;60.28;27.45;;;;;;;;;;5049963;28;20308;-67
2023/02/15 06:24:59;;;;;;;51.78;24.90;;;;;;;;;;5061035;28;20299;-68
2023/02/15 06:27:27;;;;;;;45.20;23.23;;;;;;;;;;5051484;28;20668;-67
2023/02/15 06:29:55;;;;;;;55.78;26.60;;;;;;;;;;5051128;28;20275;-67
2023/02/15 06:32:23;;;;;;;52.40;24.13;;;;;;;;;;5045816;28;20285;-67
2023/02/15 06:34:53;;;;;;;62.20;24.50;;;;;;;;;;5040046;28;20280;-68
2023/02/15 06:37:21;;;;;;;48.38;22.15;;;;;;;;;;5039246;28;20229;-68
2023/02/15 06:39:49;;;;;;;52.35;25.05;;;;;;;;;;5052498;28;20275;-68
2023/02/15 06:42:18;;;;;;;51.78;25.58;;;;;;;;;;5054261;28;20279;-67
2023/02/15 06:44:46;;;;;;;56.60;24.15;;;;;;;;;;5044011;28;20221;-68
2023/02/15 06:47:14;;;;;;;80.65;23.15;;;;;;;;;;5039180;28;20280;-67
2023/02/15 06:49:42;;;;;;;66.63;32.17;;;;;;;;;;5034624;28;20754;-67
2023/02/15 06:52:12;;;;;;;53.22;25.45;;;;;;;;;;5035810;28;20201;-67
2023/02/15 06:54:40;;;;;;;64.60;24.92;;;;;;;;;;5053126;28;20207;-68
2023/02/15 06:57:09;;;;;;;49.28;24.52;;;;;;;;;;5053799;28;20614;-68
2023/02/15 06:59:37;;;;;;;63.67;25.27;;;;;;;;;;5048286;28;20280;-66
2023/02/15 07:02:05;;;;;;;54.13;23.73;;;;;;;;;;5040214;28;20743;-67
2023/02/15 07:04:33;;;;;;;66.88;23.05;;;;;;;;;;5036981;28;20622;-67
2023/02/15 07:07:02;;;;;;;48.42;22.95;;;;;;;;;;5036187;28;20280;-67
2023/02/15 07:09:31;;;;;;;48.03;23.13;;;;;;;;;;5038001;28;20287;-69
2023/02/15 07:14:45;;;;;;;64.38;22.33;;;;;;;;;;5032930;28;20543;-68
2023/02/15 07:17:14;;;;;;;67.00;25.67;;;;;;;;;;5033165;28;20213;-68
2023/02/15 07:19:42;;;;;;;59.13;23.95;;;;;;;;;;5033868;28;20263;-68
2023/02/15 07:22:12;;;;;;;61.05;23.05;;;;;;;;;;5037626;28;20205;-67
2023/02/15 07:24:41;;;;;;;58.63;23.92;;;;;;;;;;5045045;28;20224;-67
2023/02/15 07:27:09;;;;;;;63.78;24.67;;;;;;;;;;5038227;28;20201;-68
2023/02/15 07:29:38;;;;;;;51.03;23.58;;;;;;;;;;5038088;28;20720;-69
2023/02/15 07:32:06;;;;;;;55.88;22.70;;;;;;;;;;5054007;28;20311;-68
2023/02/15 07:34:34;;;;;;;52.85;22.52;;;;;;;;;;5054688;28;20272;-67
2023/02/15 07:37:02;;;;;;;52.47;21.40;;;;;;;;;;5045025;28;20359;-69
2023/02/15 07:39:30;;;;;;;59.25;26.55;;;;;;;;;;5048947;28;20207;-68
2023/02/15 07:42:01;;;;;;;79.50;26.48;;;;;;;;;;5037568;28;20208;-68
2023/02/15 07:44:32;;;;;;;53.33;22.80;;;;;;;;;;5037170;28;20202;-69
2023/02/15 07:47:00;;;;;;;54.42;20.95;;;;;;;;;;5041515;28;20247;-68
2023/02/15 07:49:30;;;;;;;51.03;21.15;;;;;;;;;;5041297;28;20266;-69
2023/02/15 07:51:58;;;;;;;58.95;21.92;;;;;;;;;;5057258;28;20208;-68
2023/02/15 07:54:26;;;;;;;60.85;21.63;;;;;;;;;;5046283;28;20201;-65
2023/02/15 07:56:54;;;;;;;49.08;21.40;;;;;;;;;;5037922;28;20201;-67
2023/02/15 07:59:24;;;;;;;55.63;21.98;;;;;;;;;;5043680;28;20260;-66
2023/02/15 08:01:53;;;;;;;61.20;21.67;;;;;;;;;;5055769;28;20632;-66
2023/02/15 08:04:22;;;;;;;55.67;19.73;;;;;;;;;;5045396;28;20269;-66
2023/02/15 08:06:53;;;;;;;46.55;18.33;;;;;;;;;;5045652;28;20229;-66
2023/02/15 08:09:22;;;;;;;58.28;20.20;;;;;;;;;;5043779;28;20708;-66
2023/02/15 08:11:50;;;;;;;40.15;18.15;;;;;;;;;;5041555;28;20251;-66
2023/02/15 08:14:20;;;;;;;50.60;20.85;;;;;;;;;;5045967;28;20240;-66
2023/02/15 08:16:50;;;;;;;37.17;17.25;;;;;;;;;;5045571;28;20604;-68
2023/02/15 08:19:19;;;;;;;39.55;17.90;;;;;;;;;;5052678;28;20197;-66
2023/02/15 08:21:48;;;;;;;36.97;17.88;;;;;;;;;;5042858;28;20201;-67
2023/02/15 08:24:17;;;;;;;37.90;16.98;;;;;;;;;;5044996;28;20224;-67
2023/02/15 08:26:46;;;;;;;35.35;17.90;;;;;;;;;;5048216;28;20225;-66
2023/02/15 08:29:15;;;;;;;37.92;18.40;;;;;;;;;;5041620;28;20612;-67
2023/02/15 08:31:44;;;;;;;54.50;17.90;;;;;;;;;;5043535;28;20204;-68
2023/02/15 08:34:15;;;;;;;48.58;19.13;;;;;;;;;;5046443;28;20675;-69
2023/02/15 08:36:45;;;;;;;38.10;18.75;;;;;;;;;;5045759;28;20232;-68
2023/02/15 08:39:14;;;;;;;40.05;18.05;;;;;;;;;;5049912;28;20279;-68
2023/02/15 08:41:43;;;;;;;39.90;18.30;;;;;;;;;;5060617;28;20275;-67
2023/02/15 08:44:12;;;;;;;41.05;20.35;;;;;;;;;;5062409;28;20256;-66
2023/02/15 08:46:41;;;;;;;52.65;20.65;;;;;;;;;;5060228;28;20219;-67
2023/02/15 08:49:09;;;;;;;52.33;21.08;;;;;;;;;;5054522;28;20205;-67
2023/02/15 08:51:39;;;;;;;46.92;19.30;;;;;;;;;;5058059;28;20196;-67
2023/02/15 08:54:09;;;;;;;42.03;19.58;;;;;;;;;;5051258;28;20211;-68
2023/02/15 08:56:38;;;;;;;49.83;19.85;;;;;;;;;;5041534;28;20199;-67
2023/02/15 08:59:07;;;;;;;44.45;19.35;;;;;;;;;;5035859;28;20205;-66
2023/02/15 09:01:35;;;;;;;40.70;19.45;;;;;;;;;;5044311;28;20211;-67
2023/02/15 09:04:05;;;;;;;46.20;17.88;;;;;;;;;;5046674;28;20559;-67
2023/02/15 09:06:33;;;;;;;39.72;16.20;;;;;;;;;;5047427;28;20551;-68
2023/02/15 09:09:03;;;;;;;41.20;17.40;;;;;;;;;;5050190;28;20211;-68
2023/02/15 09:11:32;;;;;;;32.47;15.90;;;;;;;;;;5056582;28;20205;-68
2023/02/15 09:14:01;;;;;;;35.05;17.25;;;;;;;;;;5047333;28;20211;-68
2023/02/15 09:16:31;;;;;;;45.30;20.02;;;;;;;;;;5048442;28;20192;-67
2023/02/15 09:19:01;;;;;;;36.58;17.50;;;;;;;;;;5048093;28;20251;-68
2023/02/15 09:21:30;;;;;;;35.75;17.73;;;;;;;;;;5037787;28;20205;-66
2023/02/15 09:23:59;;;;;;;38.88;17.58;;;;;;;;;;5037317;28;20217;-66
2023/02/15 09:26:30;;;;;;;41.95;18.85;;;;;;;;;;5037233;28;20204;-67
2023/02/15 09:29:00;;;;;;;41.80;18.05;;;;;;;;;;5052580;28;20667;-66
2023/02/15 09:31:29;;;;;;;42.13;19.40;;;;;;;;;;5056816;28;20281;-65
2023/02/15 09:33:58;;;;;;;48.83;24.45;;;;;;;;;;5047464;28;20198;-66
2023/02/15 09:36:27;;;;;;;41.30;20.48;;;;;;;;;;5039340;28;20764;-66
2023/02/15 09:38:57;;;;;;;46.90;22.15;;;;;;;;;;5037221;28;20210;-66
2023/02/15 09:41:38;;;;;;;37.20;18.23;;;;;;;;;;5041884;28;20252;-66
2023/02/15 09:44:13;;;;;;;44.92;21.25;;;;;;;;;;5052218;28;20283;-67
2023/02/15 09:46:51;;;;;;;43.65;19.17;;;;;;;;;;5060652;28;20260;-67
2023/02/15 09:49:25;;;;;;;44.80;20.30;;;;;;;;;;5057382;28;20196;-66
2023/02/15 09:52:03;;;;;;;42.20;18.90;;;;;;;;;;5050353;28;20339;-66
2023/02/15 09:54:39;;;;;;;43.40;21.33;;;;;;;;;;5038416;28;20196;-67
2023/02/15 09:57:12;;;;;;;37.20;20.67;;;;;;;;;;5050218;28;20195;-68
2023/02/15 09:59:45;;;;;;;45.47;20.77;;;;;;;;;;5049324;28;20209;-67
2023/02/15 10:02:19;;;;;;;49.90;21.20;;;;;;;;;;5049537;28;20696;-67
2023/02/15 10:04:56;;;;;;;48.15;23.63;;;;;;;;;;5040142;28;20276;-67
2023/02/15 10:07:35;;;;;;;46.85;23.30;;;;;;;;;;5051109;28;20592;-68
2023/02/15 10:10:12;;;;;;;57.28;22.55;;;;;;;;;;5043296;28;20189;-69
2023/02/15 10:12:55;;;;;;;46.08;19.65;;;;;;;;;;5056615;28;20556;-68
2023/02/15 10:15:30;;;;;;;52.33;22.40;;;;;;;;;;5037343;28;20272;-69
2023/02/15 10:18:07;;;;;;;50.97;21.80;;;;;;;;;;5054076;28;20200;-68
2023/02/15 10:20:41;;;;;;;45.30;22.13;;;;;;;;;;5034591;28;20323;-67
2023/02/15 10:23:16;;;;;;;46.58;21.20;;;;;;;;;;5039249;28;20288;-68
2023/02/15 10:25:48;;;;;;;44.30;22.00;;;;;;;;;;5039577;28;20279;-69
2023/02/15 10:28:19;;;;;;;44.65;21.08;;;;;;;;;;5035359;28;20198;-67
2023/02/15 10:30:50;;;;;;;55.20;22.25;;;;;;;;;;5035267;28;20216;-67
2023/02/15 10:33:24;;;;;;;45.10;21.95;;;;;;;;;;5035005;28;20251;-68
2023/02/15 10:35:57;;;;;;;37.70;19.75;;;;;;;;;;5039417;28;20528;-66
2023/02/15 10:38:30;;;;;;;33.85;18.67;;;;;;;;;;5042495;28;20199;-66
2023/02/15 10:41:05;;;;;;;37.20;19.48;;;;;;;;;;5038673;28;20189;-65
2023/02/15 10:43:41;;;;;;;41.92;20.08;;;;;;;;;;5049222;28;20180;-65
2023/02/15 10:46:13;;;;;;;40.00;20.33;;;;;;;;;;5050816;28;20211;-65
2023/02/15 10:48:46;;;;;;;40.53;20.27;;;;;;;;;;5042130;28;20182;-65
2023/02/15 10:51:19;;;;;;;45.83;22.17;;;;;;;;;;5044914;28;20193;-65
2023/02/15 10:53:56;;;;;;;46.72;23.73;;;;;;;;;;5043364;28;20547;-65
2023/02/15 10:56:26;;;;;;;52.60;24.77;;;;;;;;;;5054796;28;20196;-65
2023/02/15 10:59:03;;;;;;;43.03;21.38;;;;;;;;;;5051855;28;20192;-66
2023/02/15 11:01:35;;;;;;;37.10;20.50;;;;;;;;;;5050126;28;20197;-66
2023/02/15 11:04:11;;;;;;;41.65;20.58;;;;;;;;;;5052309;28;20192;-66
2023/02/15 11:06:42;;;;;;;42.97;22.30;;;;;;;;;;5043598;28;20217;-66
2023/02/15 11:09:12;;;;;;;46.75;21.85;;;;;;;;;;5047251;28;20561;-66
2023/02/15 11:11:42;;;;;;;47.17;24.25;;;;;;;;;;5049796;28;20218;-66
2023/02/15 11:14:16;;;;;;;45.40;23.42;;;;;;;;;;5043168;28;20224;-67
2023/02/15 11:16:53;;;;;;;42.85;23.10;;;;;;;;;;5047168;28;20542;-66
2023/02/15 11:19:24;;;;;;;49.50;26.40;;;;;;;;;;5049341;28;20208;-66
2023/02/15 11:21:54;;;;;;;43.25;22.45;;;;;;;;;;5044444;28;20196;-67
2023/02/15 11:24:23;;;;;;;46.13;23.30;;;;;;;;;;5046975;28;20228;-66
2023/02/15 11:26:52;;;;;;;42.42;22.25;;;;;;;;;;5044368;28;20221;-67
2023/02/15 11:29:25;;;;;;;34.20;19.38;;;;;;;;;;5054321;28;20204;-66
2023/02/15 11:31:55;;;;;;;41.33;19.27;;;;;;;;;;5039768;28;20215;-67
2023/02/15 11:34:26;;;;;;;37.38;20.25;;;;;;;;;;5053594;28;20275;-67
2023/02/15 11:36:56;;;;;;;41.10;19.98;;;;;;;;;;5049007;28;20232;-66
2023/02/15 11:39:28;;;;;;;40.83;22.45;;;;;;;;;;5042481;28;20601;-67
2023/02/15 11:41:58;;;;;;;43.55;20.15;;;;;;;;;;5052256;28;20555;-66
2023/02/15 11:44:32;;;;;;;41.45;22.85;;;;;;;;;;5038122;28;20568;-66
2023/02/15 11:47:01;;;;;;;46.33;20.45;;;;;;;;;;5041857;28;20665;-66
2023/02/15 11:49:31;;;;;;;49.92;24.45;;;;;;;;;;5046048;28;20246;-66
2023/02/15 11:52:00;;;;;;;38.53;20.27;;;;;;;;;;5042580;28;20415;-66
2023/02/15 11:54:29;;;;;;;42.40;20.75;;;;;;;;;;5046270;28;20304;-66
2023/02/15 11:56:59;;;;;;;43.53;22.30;;;;;;;;;;5040893;28;20211;-66
2023/02/15 11:59:31;;;;;;;40.63;18.85;;;;;;;;;;5041176;28;20256;-66
2023/02/15 12:01:59;;;;;;;36.58;19.02;;;;;;;;;;5041613;28;20641;-66
2023/02/15 12:04:31;;;;;;;37.80;20.92;;;;;;;;;;5040298;28;20197;-66
2023/02/15 12:07:01;;;;;;;45.03;21.15;;;;;;;;;;5043510;28;20209;-67
2023/02/15 12:09:32;;;;;;;47.40;22.80;;;;;;;;;;5047141;28;20190;-66
2023/02/15 12:12:15;;;;;;;47.70;22.30;;;;;;;;;;5042673;28;20193;-66
2023/02/15 12:14:49;;;;;;;40.88;22.02;;;;;;;;;;5040171;28;20197;-66
2023/02/15 12:17:18;;;;;;;43.65;24.30;;;;;;;;;;5043576;28;20193;-66
2023/02/15 12:19:50;;;;;;;59.13;23.77;;;;;;;;;;5042331;28;20262;-67
2023/02/15 12:22:23;;;;;;;40.47;21.60;;;;;;;;;;5042082;28;20197;-66
2023/02/15 12:24:53;;;;;;;47.45;24.48;;;;;;;;;;5043183;28;20705;-67
2023/02/15 12:27:22;;;;;;;43.72;20.85;;;;;;;;;;5042494;28;20569;-66
2023/02/15 12:29:53;;;;;;;42.90;22.20;;;;;;;;;;5042717;28;20686;-67
2023/02/15 12:32:24;;;;;;;36.85;19.00;;;;;;;;;;5041680;28;20189;-67
2023/02/15 12:34:53;;;;;;;37.22;21.77;;;;;;;;;;5039217;28;20636;-67
2023/02/15 12:37:23;;;;;;;32.42;19.70;;;;;;;;;;5042985;28;20239;-67
2023/02/15 12:39:56;;;;;;;37.40;21.83;;;;;;;;;;5047301;28;20201;-66
2023/02/15 12:42:26;;;;;;;40.13;22.55;;;;;;;;;;5037358;28;20189;-68
2023/02/15 12:44:57;;;;;;;36.70;19.60;;;;;;;;;;5040758;28;20196;-66
2023/02/15 12:47:26;;;;;;;56.28;26.92;;;;;;;;;;5041898;28;20216;-68
2023/02/15 12:50:16;;;;;;;42.75;22.23;;;;;;;;;;5038796;28;20194;-67
2023/02/15 12:52:45;;;;;;;33.55;19.90;;;;;;;;;;5039462;28;20194;-67
2023/02/15 12:55:19;;;;;;;39.38;21.00;;;;;;;;;;5039220;28;20652;-67
2023/02/15 12:57:50;;;;;;;40.72;21.27;;;;;;;;;;5040873;28;20671;-66
2023/02/15 13:00:31;;;;;;;44.20;20.58;;;;;;;;;;5042062;28;20594;-66
2023/02/15 13:03:00;;;;;;;39.85;20.85;;;;;;;;;;5043932;28;20203;-66
2023/02/15 13:05:32;;;;;;;37.03;20.70;;;;;;;;;;5051467;28;20204;-65
2023/02/15 13:08:02;;;;;;;38.33;20.52;;;;;;;;;;5051550;28;20204;-66
2023/02/15 13:10:31;;;;;;;39.17;22.27;;;;;;;;;;5032594;28;20201;-66
2023/02/15 13:13:02;;;;;;;37.30;21.83;;;;;;;;;;5039747;28;20204;-66
2023/02/15 13:15:36;;;;;;;41.60;21.20;;;;;;;;;;5039465;28;20193;-66
2023/02/15 13:18:05;;;;;;;44.08;22.73;;;;;;;;;;5042625;28;20873;-66
2023/02/15 13:20:33;;;;;;;48.50;24.80;;;;;;;;;;5038890;28;20197;-66
2023/02/15 13:23:04;;;;;;;46.40;24.85;;;;;;;;;;5056542;28;20227;-66
2023/02/15 13:25:39;;;;;;;47.20;25.35;;;;;;;;;;5053147;28;20186;-66
2023/02/15 13:28:08;;;;;;;46.80;24.50;;;;;;;;;;5056442;28;20212;-67
2023/02/15 13:30:40;;;;;;;46.97;25.10;;;;;;;;;;5045736;28;20201;-66
2023/02/15 13:33:11;;;;;;;41.67;21.75;;;;;;;;;;5045750;28;20654;-67
2023/02/15 13:35:43;;;;;;;39.28;20.98;;;;;;;;;;5043726;28;20204;-67
2023/02/15 13:38:20;;;;;;;47.60;22.92;;;;;;;;;;5043088;28;20198;-67
2023/02/15 13:40:52;;;;;;;45.83;23.98;;;;;;;;;;5044155;28;20199;-66
2023/02/15 13:43:29;;;;;;;50.63;24.58;;;;;;;;;;5043029;28;20690;-66
2023/02/15 13:46:05;;;;;;;43.38;23.48;;;;;;;;;;5044570;28;20209;-66
2023/02/15 13:48:39;;;;;;;45.33;25.50;;;;;;;;;;5046843;28;20679;-67
2023/02/15 13:51:11;;;;;;;52.05;25.05;;;;;;;;;;5048301;28;20189;-66
2023/02/15 13:53:57;;;;;;;54.30;25.23;;;;;;;;;;5044091;28;20203;-66
2023/02/15 13:56:31;;;;;;;41.97;24.17;;;;;;;;;;5035675;28;20246;-67
2023/02/15 13:59:11;;;;;;;46.22;25.45;;;;;;;;;;5042688;28;20185;-67
2023/02/15 14:01:46;;;;;;;44.83;23.67;;;;;;;;;;5042869;28;20691;-66
2023/02/15 14:04:37;;;;;;;47.30;24.67;;;;;;;;;;5040681;28;20231;-66
2023/02/15 14:07:12;;;;;;;44.08;25.00;;;;;;;;;;5038120;28;20205;-66
2023/02/15 14:09:46;;;;;;;47.65;26.73;;;;;;;;;;5043349;28;20212;-66
2023/02/15 14:12:33;;;;;;;50.15;25.52;;;;;;;;;;5042466;28;20559;-66
2023/02/15 14:15:10;;;;;;;46.90;25.25;;;;;;;;;;5042501;28;20188;-66
2023/02/15 14:17:45;;;;;;;46.30;24.38;;;;;;;;;;5041183;28;20649;-66
2023/02/15 14:20:20;;;;;;;45.65;25.00;;;;;;;;;;5037785;28;20204;-66
2023/02/15 14:22:50;;;;;;;44.95;24.63;;;;;;;;;;5040146;28;20243;-66
2023/02/15 14:25:22;;;;;;;47.95;25.10;;;;;;;;;;5040775;28;20196;-66
2023/02/15 14:27:55;;;;;;;51.45;23.85;;;;;;;;;;5039874;28;20220;-66
2023/02/15 14:30:26;;;;;;;45.05;25.48;;;;;;;;;;5039048;28;20203;-66
2023/02/15 14:32:58;;;;;;;41.30;24.10;;;;;;;;;;5041360;28;20712;-66
2023/02/15 14:35:27;;;;;;;42.65;23.88;;;;;;;;;;5043180;28;20664;-66
2023/02/15 14:38:00;;;;;;;47.28;25.55;;;;;;;;;;5041357;28;20215;-66
2023/02/15 14:43:26;;;;;;;41.58;25.00;;;;;;;;;;5043556;28;20198;-66
2023/02/15 14:45:55;;;;;;;45.38;24.02;;;;;;;;;;5042851;28;20184;-66
2023/02/15 14:48:27;;;;;;;40.42;21.55;;;;;;;;;;5045037;28;20214;-67
2023/02/15 14:50:56;;;;;;;35.80;21.80;;;;;;;;;;5043168;28;20216;-67
2023/02/15 14:53:36;;;;;;;42.53;25.10;;;;;;;;;;5037245;28;20192;-67
2023/02/15 14:56:31;;;;;;;36.75;24.08;;;;;;;;;;5040026;28;20825;-67
2023/02/15 14:59:01;;;;;;;43.15;27.02;;;;;;;;;;5002985;28;20573;-66
2023/02/15 15:01:30;;;;;;;42.97;24.75;;;;;;;;;;5043336;28;20196;-67
2023/02/15 15:04:01;;;;;;;46.17;25.77;;;;;;;;;;5041651;28;20226;-67